Time;durP1;ratioP1;P1;durP2;ratioP2;P2;SDS_P1;SDS_P2;PMS_P1;PMS_P2;Temp;Humidity;BMP_temperature;BMP_pressure;BME280_temperature;BME280_humidity;BME280_pressure;Samples;Min_cycle;Max_cycle;Signal;HPM_P1;HPM_P2
2022/05/26 00:01:26;;;;;;;3.83;1.10;;;;;;;18.23;37.63;100005.44;1621950;88;21226;-69
2022/05/26 00:03:54;;;;;;;4.90;1.25;;;;;;;18.20;37.64;100004.47;1642107;86;23024;-69
2022/05/26 00:06:25;;;;;;;3.30;1.05;;;;;;;18.19;37.77;100007.33;1655898;85;21025;-69
2022/05/26 00:08:52;;;;;;;1.98;1.22;;;;;;;18.11;37.98;99997.52;1622215;87;20993;-69
2022/05/26 00:11:26;;;;;;;2.75;1.20;;;;;;;18.08;37.83;99995.73;1645486;87;22258;-69
2022/05/26 00:13:53;;;;;;;4.10;1.22;;;;;;;18.03;37.89;99989.56;1642146;86;21099;-69
2022/05/26 00:16:22;;;;;;;2.87;1.32;;;;;;;18.01;37.77;99991.59;1643610;85;21949;-69
2022/05/26 00:18:50;;;;;;;3.52;1.10;;;;;;;18.00;37.65;99988.59;1665839;85;21600;-70
2022/05/26 00:21:18;;;;;;;4.50;1.20;;;;;;;17.98;37.70;99979.94;1657318;85;21480;-70
2022/05/26 00:23:45;;;;;;;2.67;1.15;;;;;;;17.96;37.49;99985.47;1606436;86;21058;-70
2022/05/26 00:26:11;;;;;;;6.20;1.27;;;;;;;17.96;37.59;99984.13;1655230;85;20973;-72
2022/05/26 00:28:39;;;;;;;2.83;1.30;;;;;;;17.93;37.51;99979.13;1627555;87;21881;-69
2022/05/26 00:31:07;;;;;;;3.12;1.37;;;;;;;17.91;37.37;99969.63;1627159;86;21050;-69
2022/05/26 00:33:35;;;;;;;4.10;1.20;;;;;;;17.90;37.22;99965.30;1627742;88;21022;-69
2022/05/26 00:36:06;;;;;;;2.75;1.20;;;;;;;17.88;37.10;99961.98;1627650;86;21918;-68
2022/05/26 00:38:34;;;;;;;2.98;1.57;;;;;;;17.86;37.02;99957.33;1640634;86;21532;-69
2022/05/26 00:41:07;;;;;;;4.28;1.60;;;;;;;17.83;37.05;99955.83;1632462;86;21934;-69
2022/05/26 00:43:44;;;;;;;2.65;1.65;;;;;;;17.81;37.13;99952.51;1623889;86;21074;-72
2022/05/26 00:46:25;;;;;;;4.53;1.40;;;;;;;17.77;37.12;99955.73;1635610;85;21468;-69
2022/05/26 00:48:56;;;;;;;4.83;1.40;;;;;;;17.72;37.24;99939.72;1648007;85;21160;-68
2022/05/26 00:51:31;;;;;;;3.85;1.35;;;;;;;17.68;37.40;99941.56;1648144;85;21078;-69
2022/05/26 00:54:03;;;;;;;2.08;1.30;;;;;;;17.62;37.56;99942.27;1627518;88;21760;-69
2022/05/26 00:56:58;;;;;;;1.92;1.30;;;;;;;17.57;37.51;99945.98;1641504;85;21845;-68
2022/05/26 00:59:43;;;;;;;3.60;1.30;;;;;;;17.50;37.47;99939.19;1722379;83;21483;-69
2022/05/26 01:02:14;;;;;;;4.92;1.27;;;;;;;17.46;37.51;99937.86;1713923;81;20991;-68
2022/05/26 01:04:46;;;;;;;1.98;1.10;;;;;;;17.42;37.56;99937.89;1683068;83;20982;-70
2022/05/26 01:07:33;;;;;;;3.25;1.20;;;;;;;17.38;37.62;99937.42;1664802;84;21944;-68
2022/05/26 01:10:00;;;;;;;3.55;1.30;;;;;;;17.36;37.71;99931.91;1664502;85;21385;-70
2022/05/26 01:12:26;;;;;;;1.77;1.22;;;;;;;17.33;37.67;99930.44;1692164;83;21021;-69
2022/05/26 01:15:06;;;;;;;4.92;1.35;;;;;;;17.29;37.61;99925.13;1692946;83;21073;-69
2022/05/26 01:17:52;;;;;;;3.90;1.35;;;;;;;17.30;37.78;99932.64;1676317;83;21043;-69
2022/05/26 01:20:58;;;;;;;2.95;1.20;;;;;;;17.27;37.75;99944.98;1672017;85;21816;-68
2022/05/26 01:23:59;;;;;;;2.45;1.20;;;;;;;17.25;37.77;99940.33;1681459;85;21056;-68
2022/05/26 01:27:04;;;;;;;3.10;1.20;;;;;;;17.23;37.86;99937.01;1679623;83;21053;-67
2022/05/26 01:29:57;;;;;;;4.95;1.40;;;;;;;17.17;37.77;99927.85;1676120;83;21379;-68
2022/05/26 01:32:53;;;;;;;4.47;1.30;;;;;;;17.13;37.73;99922.05;1679314;83;21118;-69
2022/05/26 01:35:43;;;;;;;2.62;1.20;;;;;;;17.10;37.61;99923.73;1726889;81;21814;-68
2022/05/26 01:38:37;;;;;;;2.92;1.10;;;;;;;17.08;37.59;99916.42;1722288;81;20959;-69
2022/05/26 01:41:36;;;;;;;2.77;1.17;;;;;;;17.08;37.62;99911.55;1724638;81;21063;-70
2022/05/26 01:44:12;;;;;;;3.00;1.10;;;;;;;17.06;37.71;99911.73;1690522;83;21075;-68
2022/05/26 01:46:47;;;;;;;4.40;1.30;;;;;;;17.03;37.84;99908.59;1713267;81;21008;-69
2022/05/26 01:49:42;;;;;;;1.77;1.10;;;;;;;17.00;37.88;99903.11;1727449;83;21003;-68
2022/05/26 01:52:16;;;;;;;3.30;1.27;;;;;;;16.96;37.83;99905.78;1705687;83;21482;-69
2022/05/26 01:54:58;;;;;;;2.50;1.30;;;;;;;16.92;37.89;99903.15;1727809;83;21058;-68
2022/05/26 01:57:57;;;;;;;3.20;1.25;;;;;;;16.89;37.93;99908.84;1715837;81;21078;-72
2022/05/26 02:00:24;;;;;;;1.92;1.10;;;;;;;16.86;37.98;99905.16;1669713;82;20960;-69
2022/05/26 02:03:08;;;;;;;4.60;1.20;;;;;;;16.82;37.95;99903.36;1710189;82;21919;-67
2022/05/26 02:05:54;;;;;;;1.52;1.12;;;;;;;16.80;38.15;99904.55;1709075;83;21079;-70
2022/05/26 02:08:38;;;;;;;2.45;1.20;;;;;;;16.76;38.10;99912.05;1707850;82;20964;-70
2022/05/26 02:11:21;;;;;;;2.83;1.20;;;;;;;16.76;38.20;99908.55;1698295;82;21543;-70
2022/05/26 02:14:09;;;;;;;2.85;1.30;;;;;;;16.73;38.15;99897.73;1705349;82;21053;-72
2022/05/26 02:16:48;;;;;;;1.75;1.20;;;;;;;16.71;38.14;99906.41;1704190;82;21001;-70
2022/05/26 02:19:38;;;;;;;1.52;1.10;;;;;;;16.69;37.79;99907.56;1704371;82;20939;-71
2022/05/26 02:22:26;;;;;;;1.52;1.10;;;;;;;16.69;37.78;99911.56;1678654;84;21048;-70
2022/05/26 02:25:00;;;;;;;2.85;1.35;;;;;;;16.69;37.91;99900.89;1704844;82;21476;-70
2022/05/26 02:27:27;;;;;;;2.22;1.20;;;;;;;16.66;37.90;99903.38;1697813;83;20969;-71
2022/05/26 02:30:00;;;;;;;2.75;1.10;;;;;;;16.63;37.77;99906.91;1695230;82;23333;-71
2022/05/26 02:32:43;;;;;;;2.83;1.20;;;;;;;16.60;37.83;99900.92;1705612;83;21064;-71
2022/05/26 02:35:18;;;;;;;1.92;1.10;;;;;;;16.59;37.66;99901.07;1696854;82;21001;-71
2022/05/26 02:37:51;;;;;;;5.58;1.22;;;;;;;16.57;37.75;99898.58;1701249;82;21285;-72
2022/05/26 02:40:18;;;;;;;5.70;1.20;;;;;;;16.56;37.79;99894.75;1704840;82;21020;-75
2022/05/26 02:42:57;;;;;;;3.33;1.30;;;;;;;16.52;37.82;99890.28;1708809;84;21780;-72
2022/05/26 02:45:47;;;;;;;2.33;1.12;;;;;;;16.50;37.90;99886.96;1707894;82;20961;-71
2022/05/26 02:48:47;;;;;;;3.52;1.20;;;;;;;16.48;37.98;99893.45;1709664;83;20988;-72
2022/05/26 02:51:40;;;;;;;3.42;1.15;;;;;;;16.45;37.84;99888.47;1695256;83;20956;-72
2022/05/26 02:54:49;;;;;;;3.65;1.22;;;;;;;16.42;37.66;99888.31;1649785;85;21648;-72
2022/05/26 02:57:41;;;;;;;2.70;1.12;;;;;;;16.40;37.71;99879.63;1673370;83;22785;-69
2022/05/26 03:00:17;;;;;;;2.05;1.10;;;;;;;16.37;37.88;99886.65;1706968;82;22367;-70
2022/05/26 03:02:55;;;;;;;4.45;1.10;;;;;;;16.35;37.84;99878.50;1704272;83;22168;-70
2022/05/26 03:05:45;;;;;;;3.75;1.15;;;;;;;16.32;37.73;99878.35;1696250;82;21592;-70
2022/05/26 03:08:17;;;;;;;2.87;1.15;;;;;;;16.31;37.54;99866.86;1681235;85;20984;-70
2022/05/26 03:10:54;;;;;;;4.35;1.30;;;;;;;16.29;37.57;99870.17;1703585;82;22942;-71
2022/05/26 03:13:20;;;;;;;4.08;1.35;;;;;;;16.30;37.62;99867.84;1694961;84;20987;-71
2022/05/26 03:15:47;;;;;;;2.17;1.07;;;;;;;16.33;37.60;99857.36;1699336;82;21106;-71
2022/05/26 03:18:14;;;;;;;3.42;1.10;;;;;;;16.35;37.48;99853.19;1708992;84;20966;-71
2022/05/26 03:20:42;;;;;;;4.40;0.95;;;;;;;16.38;37.24;99857.66;1694047;82;21411;-71
2022/05/26 03:23:08;;;;;;;3.95;1.10;;;;;;;16.40;37.13;99860.14;1699793;82;21925;-71
2022/05/26 03:25:35;;;;;;;2.15;1.00;;;;;;;16.42;37.50;99869.66;1700557;82;21043;-71
2022/05/26 03:28:03;;;;;;;4.70;1.40;;;;;;;16.44;37.23;99863.64;1708363;82;21341;-71
2022/05/26 03:30:31;;;;;;;5.83;1.30;;;;;;;16.45;37.36;99876.47;1738982;82;21791;-71
2022/05/26 03:32:58;;;;;;;2.83;1.10;;;;;;;16.47;37.25;99863.80;1707567;82;21068;-71
2022/05/26 03:40:58;;;;;;;3.10;1.47;;;;;;;16.43;37.84;99870.48;1708206;82;21064;-69
2022/05/26 03:43:35;;;;;;;2.75;1.40;;;;;;;16.40;37.92;99862.31;1703036;82;21417;-69
2022/05/26 03:46:02;;;;;;;3.60;1.70;;;;;;;16.40;38.08;99856.98;1719481;82;20966;-69
2022/05/26 03:48:30;;;;;;;2.20;1.37;;;;;;;16.42;38.22;99859.50;1705506;82;21852;-69
2022/05/26 03:50:58;;;;;;;3.62;1.52;;;;;;;16.42;38.26;99865.66;1694672;84;21323;-70
2022/05/26 03:53:27;;;;;;;3.35;1.42;;;;;;;16.44;38.48;99851.65;1702661;82;21007;-69
2022/05/26 03:55:53;;;;;;;1.80;1.10;;;;;;;16.47;38.27;99855.80;1706287;82;21432;-71
2022/05/26 03:58:23;;;;;;;1.42;1.05;;;;;;;16.49;38.32;99853.78;1694321;83;20972;-69
2022/05/26 04:00:50;;;;;;;2.05;1.10;;;;;;;16.49;38.39;99853.28;1707513;84;21826;-69
2022/05/26 04:03:18;;;;;;;5.47;1.30;;;;;;;16.48;38.62;99856.95;1703325;82;21031;-70
2022/05/26 04:05:44;;;;;;;4.40;1.30;;;;;;;16.46;38.67;99854.97;1704110;82;21043;-68
2022/05/26 04:08:11;;;;;;;3.15;1.10;;;;;;;16.45;38.88;99855.14;1699455;84;20992;-69
2022/05/26 04:10:37;;;;;;;1.55;1.00;;;;;;;16.43;38.82;99863.82;1708355;84;21015;-69
2022/05/26 04:13:05;;;;;;;2.58;1.22;;;;;;;16.41;39.06;99858.67;1704291;82;21013;-69
2022/05/26 04:15:32;;;;;;;2.72;1.20;;;;;;;16.39;38.91;99856.65;1707512;82;20946;-74
2022/05/26 04:18:00;;;;;;;3.40;1.10;;;;;;;16.40;39.06;99852.15;1696783;82;21015;-70
2022/05/26 04:20:27;;;;;;;1.82;1.45;;;;;;;16.41;39.14;99850.67;1703177;82;21016;-70
2022/05/26 04:22:53;;;;;;;2.55;1.25;;;;;;;16.43;39.41;99847.83;1702073;83;20964;-70
2022/05/26 04:25:22;;;;;;;4.03;1.10;;;;;;;16.43;39.25;99844.66;1708001;84;22667;-70
2022/05/26 04:27:48;;;;;;;2.70;1.12;;;;;;;16.44;39.34;99846.83;1700834;82;21043;-70
2022/05/26 04:30:15;;;;;;;2.05;1.00;;;;;;;16.44;39.51;99848.16;1703609;82;21119;-70
2022/05/26 04:32:43;;;;;;;1.50;0.98;;;;;;;16.44;39.63;99855.65;1701044;82;20965;-70
2022/05/26 04:35:09;;;;;;;5.42;1.12;;;;;;;16.43;39.64;99849.99;1708220;84;21017;-70
2022/05/26 04:37:37;;;;;;;1.92;1.00;;;;;;;16.44;39.96;99854.31;1711319;82;21800;-71
2022/05/26 04:40:08;;;;;;;4.10;1.40;;;;;;;16.41;40.14;99857.34;1704496;82;21021;-70
2022/05/26 04:42:37;;;;;;;2.35;1.10;;;;;;;16.40;40.20;99861.48;1703414;84;21430;-69
2022/05/26 04:45:10;;;;;;;2.80;1.15;;;;;;;16.39;40.45;99863.81;1709854;83;20992;-69
2022/05/26 04:47:39;;;;;;;3.45;1.15;;;;;;;16.38;40.71;99869.66;1702851;82;21425;-69
2022/05/26 04:50:08;;;;;;;3.27;1.00;;;;;;;16.37;41.07;99865.33;1700325;82;22012;-69
2022/05/26 04:52:36;;;;;;;2.90;1.25;;;;;;;16.37;41.16;99868.49;1705654;82;21008;-69
2022/05/26 04:55:06;;;;;;;4.00;1.30;;;;;;;16.34;41.27;99860.35;1708667;82;21433;-69
2022/05/26 04:57:33;;;;;;;1.80;1.20;;;;;;;16.32;41.50;99861.03;1703382;82;21362;-70
2022/05/26 04:59:59;;;;;;;3.47;1.37;;;;;;;16.31;41.70;99866.03;1693455;82;21403;-69
2022/05/26 05:02:29;;;;;;;3.10;1.15;;;;;;;16.27;41.91;99857.53;1702754;82;21779;-70
2022/05/26 05:05:05;;;;;;;3.10;1.30;;;;;;;16.24;42.68;99867.20;1707724;84;21079;-70
2022/05/26 05:07:32;;;;;;;4.65;1.60;;;;;;;16.21;43.01;99870.69;1705419;82;21436;-69
2022/05/26 05:09:58;;;;;;;1.87;1.17;;;;;;;16.17;43.56;99870.21;1697862;82;20960;-70
2022/05/26 05:12:26;;;;;;;4.03;1.40;;;;;;;16.15;43.97;99872.22;1707045;82;21012;-67
2022/05/26 05:14:56;;;;;;;4.10;1.50;;;;;;;16.12;44.48;99870.41;1709566;84;21942;-68
2022/05/26 05:17:26;;;;;;;1.98;1.15;;;;;;;16.08;44.70;99875.73;1701940;82;20868;-69
2022/05/26 05:19:52;;;;;;;7.50;1.40;;;;;;;16.06;45.10;99876.41;1700969;82;21036;-71
2022/05/26 05:22:34;;;;;;;2.98;1.30;;;;;;;16.03;45.34;99870.92;1703052;82;21047;-70
2022/05/26 05:25:15;;;;;;;3.83;1.40;;;;;;;16.01;45.48;99870.23;1704883;82;21459;-69
2022/05/26 05:27:54;;;;;;;2.25;1.25;;;;;;;16.00;45.74;99868.58;1718587;82;21938;-74
2022/05/26 05:30:29;;;;;;;3.83;1.30;;;;;;;15.96;46.02;99877.41;1627899;86;21499;-70
2022/05/26 05:33:09;;;;;;;4.08;1.32;;;;;;;15.93;46.27;99870.27;1707374;84;21096;-71
2022/05/26 05:35:48;;;;;;;3.60;1.32;;;;;;;15.89;46.50;99863.59;1703058;82;21024;-69
2022/05/26 05:38:15;;;;;;;5.67;1.20;;;;;;;15.85;46.87;99870.28;1674154;84;21051;-69
2022/05/26 05:40:44;;;;;;;5.17;1.40;;;;;;;15.78;47.19;99867.44;1698437;82;21602;-70
2022/05/26 05:43:12;;;;;;;3.35;1.40;;;;;;;15.72;47.98;99865.44;1691409;82;20960;-70
2022/05/26 05:45:39;;;;;;;4.92;1.40;;;;;;;15.65;49.30;99868.45;1695915;82;21004;-68
2022/05/26 05:48:08;;;;;;;5.67;1.47;;;;;;;15.58;50.91;99871.41;1704031;82;21929;-69
2022/05/26 05:50:35;;;;;;;2.00;1.32;;;;;;;15.41;51.78;99867.41;1701750;82;21050;-69
2022/05/26 05:53:01;;;;;;;3.17;1.75;;;;;;;15.25;53.19;99859.42;1707796;82;21869;-67
2022/05/26 05:55:32;;;;;;;5.47;1.75;;;;;;;15.07;54.25;99850.25;1705890;83;21036;-69
2022/05/26 05:58:00;;;;;;;3.75;1.80;;;;;;;14.91;55.80;99855.52;1694614;83;21011;-69
2022/05/26 06:00:26;;;;;;;6.08;1.90;;;;;;;14.70;57.05;99861.27;1704114;82;21028;-70
2022/05/26 06:02:54;;;;;;;3.08;1.92;;;;;;;14.54;57.97;99854.06;1692568;82;21087;-68
2022/05/26 06:05:21;;;;;;;3.70;1.77;;;;;;;14.39;59.40;99858.30;1704537;83;22546;-68
2022/05/26 06:07:48;;;;;;;3.30;1.90;;;;;;;14.25;60.40;99859.70;1707593;82;21634;-70
2022/05/26 06:10:15;;;;;;;4.50;1.67;;;;;;;14.12;61.45;99846.03;1663453;85;21026;-70
2022/05/26 06:12:42;;;;;;;2.85;1.82;;;;;;;14.03;62.39;99853.61;1707574;83;20985;-68
2022/05/26 06:15:10;;;;;;;3.37;2.12;;;;;;;13.91;63.26;99864.16;1706072;82;21180;-69
2022/05/26 06:17:39;;;;;;;5.00;2.20;;;;;;;13.80;63.97;99843.14;1689167;82;23369;-71
2022/05/26 06:20:10;;;;;;;7.65;2.15;;;;;;;13.73;64.67;99844.28;1697999;82;21693;-72
2022/05/26 06:22:46;;;;;;;3.52;2.05;;;;;;;13.71;65.46;99851.57;1705625;82;21088;-72
2022/05/26 06:25:15;;;;;;;5.30;2.30;;;;;;;13.69;65.90;99854.35;1704976;82;21071;-70
2022/05/26 06:30:31;;;;;;;3.37;2.15;;;;;;;13.71;67.10;99839.13;1701089;82;21801;-73
2022/05/26 06:38:35;;;;;;;2.90;2.00;;;;;;;13.68;68.31;99827.48;1706240;82;21423;-76
2022/05/26 06:43:51;;;;;;;4.42;2.25;;;;;;;13.59;68.50;99820.44;1695107;82;22777;-70
2022/05/26 06:46:18;;;;;;;3.85;2.27;;;;;;;13.59;68.87;99824.42;1699060;82;21031;-73
2022/05/26 06:48:46;;;;;;;3.70;2.58;;;;;;;13.61;68.90;99829.60;1705240;83;21059;-69
2022/05/26 06:51:12;;;;;;;4.00;2.20;;;;;;;13.66;69.05;99837.92;1705314;83;21355;-71
2022/05/26 06:53:39;;;;;;;4.53;2.30;;;;;;;13.67;68.91;99860.31;1699692;82;21466;-72
2022/05/26 06:56:07;;;;;;;3.98;2.20;;;;;;;13.66;68.91;99845.88;1706628;83;21929;-73
2022/05/26 06:58:35;;;;;;;3.75;2.37;;;;;;;13.65;69.28;99829.62;1704116;82;21103;-71
2022/05/26 07:01:01;;;;;;;3.75;2.30;;;;;;;13.60;69.41;99836.70;1719282;81;21028;-71
2022/05/26 07:03:28;;;;;;;3.15;2.10;;;;;;;13.58;69.58;99838.68;1718697;82;21127;-73
2022/05/26 07:05:55;;;;;;;3.80;2.40;;;;;;;13.58;69.84;99835.20;1714133;82;21039;-71
2022/05/26 07:08:22;;;;;;;3.12;2.45;;;;;;;13.59;70.06;99836.36;1718469;81;21990;-73
2022/05/26 07:10:51;;;;;;;2.55;2.33;;;;;;;13.61;70.32;99834.41;1718512;82;21109;-73
2022/05/26 07:13:20;;;;;;;4.65;2.25;;;;;;;13.64;70.48;99845.20;1750791;80;21015;-73
2022/05/26 07:15:47;;;;;;;4.30;2.90;;;;;;;13.61;70.50;99846.85;1716975;81;21063;-73
2022/05/26 07:18:13;;;;;;;5.58;3.75;;;;;;;13.62;70.62;99855.98;1678909;83;21566;-73
2022/05/26 07:20:40;;;;;;;6.50;5.00;;;;;;;13.64;70.78;99859.30;1652866;85;21794;-73
2022/05/26 07:23:08;;;;;;;3.83;3.00;;;;;;;13.66;71.04;99861.80;1663818;83;21056;-77
2022/05/26 07:25:41;;;;;;;8.80;4.22;;;;;;;13.64;71.25;99861.95;1641223;85;21368;-75
2022/05/26 07:28:08;;;;;;;4.35;2.92;;;;;;;13.62;71.48;99856.48;1649055;84;21072;-71
2022/05/26 07:30:36;;;;;;;6.87;3.27;;;;;;;13.62;71.81;99863.94;1658556;85;21075;-73
2022/05/26 07:33:02;;;;;;;3.42;2.80;;;;;;;13.58;72.27;99862.56;1690530;82;21918;-70
2022/05/26 07:35:30;;;;;;;4.92;2.50;;;;;;;13.55;72.72;99849.61;1651886;85;21075;-72
2022/05/26 07:43:29;;;;;;;4.80;2.80;;;;;;;13.44;73.96;99849.86;1683267;83;21503;-70
2022/05/26 07:45:56;;;;;;;4.78;3.02;;;;;;;13.42;74.32;99853.16;1651585;85;21791;-71
2022/05/26 07:48:24;;;;;;;6.12;3.00;;;;;;;13.41;74.66;99848.81;1652164;85;21263;-70
2022/05/26 07:50:51;;;;;;;4.42;3.12;;;;;;;13.39;75.20;99847.64;1681480;83;21024;-71
2022/05/26 07:53:19;;;;;;;4.33;3.00;;;;;;;13.39;75.44;99841.02;1663202;85;21048;-73
2022/05/26 07:55:49;;;;;;;5.15;2.92;;;;;;;13.40;75.65;99841.84;1680157;83;21606;-72
2022/05/26 07:58:16;;;;;;;3.70;2.75;;;;;;;13.38;75.74;99839.35;1677601;83;21947;-73
2022/05/26 08:00:42;;;;;;;5.30;2.80;;;;;;;13.39;75.91;99842.83;1678944;83;21045;-72
2022/05/26 08:03:11;;;;;;;5.53;2.87;;;;;;;13.37;76.06;99839.02;1676002;84;21479;-73
2022/05/26 08:05:39;;;;;;;4.47;3.10;;;;;;;13.40;76.32;99841.84;1655241;85;21028;-77
2022/05/26 08:08:07;;;;;;;4.78;2.98;;;;;;;13.41;76.42;99846.16;1722307;81;21493;-71
2022/05/26 08:10:34;;;;;;;4.70;2.90;;;;;;;13.41;76.60;99845.70;1693071;82;21985;-74
2022/05/26 08:13:02;;;;;;;3.15;2.77;;;;;;;13.44;76.75;99855.16;1717746;81;21039;-72
2022/05/26 08:15:31;;;;;;;4.37;3.08;;;;;;;13.46;76.84;99858.48;1714338;83;21067;-70
2022/05/26 08:17:58;;;;;;;3.75;3.00;;;;;;;13.47;77.05;99862.80;1716703;81;21064;-72
2022/05/26 08:20:25;;;;;;;3.80;2.95;;;;;;;13.48;77.17;99859.16;1718669;81;21072;-73
2022/05/26 08:22:52;;;;;;;5.62;3.47;;;;;;;13.48;77.36;99864.47;1718321;81;22178;-75
2022/05/26 08:25:19;;;;;;;4.55;3.12;;;;;;;13.52;77.67;99865.02;1718353;81;21100;-73
2022/05/26 08:27:45;;;;;;;4.22;3.12;;;;;;;13.57;77.92;99873.34;1713904;82;21475;-72
2022/05/26 08:30:12;;;;;;;5.65;3.37;;;;;;;13.58;77.99;99868.36;1718214;81;21064;-74
2022/05/26 08:32:39;;;;;;;5.37;3.50;;;;;;;13.62;78.15;99877.21;1722026;81;21055;-78
2022/05/26 08:35:08;;;;;;;4.95;3.10;;;;;;;13.64;78.29;99871.25;1718855;81;21936;-75
2022/05/26 08:37:35;;;;;;;4.78;3.27;;;;;;;13.64;78.27;99875.23;1717430;81;21127;-74
2022/05/26 08:40:07;;;;;;;5.30;3.70;;;;;;;13.64;78.31;99873.90;1716682;81;21035;-74
2022/05/26 08:42:35;;;;;;;4.95;3.22;;;;;;;13.66;78.45;99877.23;1715860;81;21075;-75
2022/05/26 08:45:10;;;;;;;6.35;3.58;;;;;;;13.66;78.38;99877.23;1721316;81;21468;-74
2022/05/26 08:47:42;;;;;;;5.62;3.67;;;;;;;13.68;78.46;99883.70;1719901;81;21819;-72
2022/05/26 08:50:18;;;;;;;6.50;3.58;;;;;;;13.68;78.55;99876.58;1718812;83;21474;-75
2022/05/26 08:52:49;;;;;;;5.55;3.52;;;;;;;13.68;78.52;99881.88;1695978;83;21051;-72
2022/05/26 08:55:27;;;;;;;4.70;3.47;;;;;;;13.67;78.56;99886.86;1695056;84;21095;-71
2022/05/26 08:58:19;;;;;;;4.58;3.40;;;;;;;13.67;78.58;99886.02;1716193;81;21558;-72
2022/05/26 09:00:49;;;;;;;4.95;3.55;;;;;;;13.65;78.60;99885.35;1719589;81;21917;-72
2022/05/26 09:03:32;;;;;;;3.77;3.37;;;;;;;13.64;78.65;99883.69;1726047;83;21044;-69
2022/05/26 09:06:12;;;;;;;4.80;3.50;;;;;;;13.66;78.67;99889.17;1712714;83;21055;-72
2022/05/26 09:14:25;;;;;;;5.83;3.50;;;;;;;13.74;79.00;99889.24;1726028;83;21921;-71
2022/05/26 09:17:04;;;;;;;5.10;3.42;;;;;;;13.78;79.17;99895.56;1706204;81;21063;-75
2022/05/26 09:19:38;;;;;;;7.42;3.42;;;;;;;13.76;79.01;99897.05;1693871;83;21091;-71
2022/05/26 09:22:05;;;;;;;3.58;3.27;;;;;;;13.74;79.01;99899.03;1698249;81;21062;-70
2022/05/26 09:24:41;;;;;;;4.45;3.52;;;;;;;13.74;79.08;99893.72;1692285;81;21102;-70
2022/05/26 09:27:08;;;;;;;6.85;3.83;;;;;;;13.78;79.13;99895.56;1725050;80;22550;-72
2022/05/26 09:29:39;;;;;;;4.75;3.62;;;;;;;13.80;79.20;99889.59;1725098;82;21551;-72
2022/05/26 09:32:07;;;;;;;4.83;3.10;;;;;;;13.80;79.29;99894.91;1719254;81;21039;-70
2022/05/26 09:34:34;;;;;;;4.30;3.85;;;;;;;13.81;79.36;99901.91;1700179;81;21101;-71
2022/05/26 09:37:04;;;;;;;4.72;3.67;;;;;;;13.81;79.39;99900.09;1721738;81;21105;-70
2022/05/26 09:39:39;;;;;;;6.08;3.80;;;;;;;13.84;79.59;99901.09;1726072;83;21967;-71
2022/05/26 09:42:16;;;;;;;6.20;3.60;;;;;;;13.86;79.61;99904.92;1725870;81;21167;-79
2022/05/26 09:44:56;;;;;;;5.17;3.15;;;;;;;13.86;79.58;99909.73;1721364;82;21435;-70
2022/05/26 09:47:53;;;;;;;4.05;3.65;;;;;;;13.88;79.70;99909.08;1688083;84;21611;-79
2022/05/26 09:50:45;;;;;;;6.30;3.83;;;;;;;13.92;79.81;99906.97;1684008;85;21141;-76
2022/05/26 09:53:12;;;;;;;4.58;3.55;;;;;;;14.00;79.83;99905.21;1663893;84;22075;-75
2022/05/26 09:55:49;;;;;;;5.53;3.40;;;;;;;14.10;79.87;99910.42;1637281;86;21048;-75
2022/05/26 09:58:37;;;;;;;5.78;3.70;;;;;;;14.17;79.91;99902.64;1659837;85;21108;-73
2022/05/26 10:01:25;;;;;;;4.28;3.80;;;;;;;14.24;79.98;99897.88;1721766;81;21092;-73
2022/05/26 10:04:05;;;;;;;5.83;3.50;;;;;;;14.36;80.04;99892.30;1722405;81;21423;-73
2022/05/26 10:06:41;;;;;;;5.37;3.65;;;;;;;14.45;79.92;99888.23;1721491;83;21834;-74
2022/05/26 10:09:34;;;;;;;4.20;3.52;;;;;;;14.46;79.45;99901.02;1722121;81;21038;-72
2022/05/26 10:12:28;;;;;;;4.13;3.23;;;;;;;14.47;79.41;99892.88;1653583;85;21052;-75
2022/05/26 10:15:08;;;;;;;3.87;2.92;;;;;;;14.51;79.34;99896.08;1687177;83;21011;-76
2022/05/26 10:18:01;;;;;;;5.72;3.42;;;;;;;14.59;79.34;99896.12;1665833;84;21116;-74
2022/05/26 10:20:45;;;;;;;4.53;3.02;;;;;;;14.68;79.23;99895.66;1661747;84;23048;-73
2022/05/26 10:23:42;;;;;;;4.60;3.30;;;;;;;14.80;79.23;99885.90;1676346;83;21111;-75
2022/05/26 10:26:37;;;;;;;4.45;3.20;;;;;;;15.07;79.77;99882.16;1673350;83;21487;-78
2022/05/26 10:29:41;;;;;;;3.60;2.65;;;;;;;15.34;79.38;99891.67;1672571;83;21017;-75
2022/05/26 10:32:23;;;;;;;4.62;3.05;;;;;;;15.58;78.52;99889.55;1718705;81;27134;-76
2022/05/26 10:35:20;;;;;;;3.85;2.85;;;;;;;15.83;78.30;99885.59;1727377;81;22814;-73
2022/05/26 10:38:04;;;;;;;5.62;3.10;;;;;;;16.01;77.49;99893.70;1732997;81;22319;-71
2022/05/26 10:40:46;;;;;;;3.65;2.80;;;;;;;16.12;75.87;99899.22;1725322;82;21552;-75
2022/05/26 10:43:20;;;;;;;3.92;2.45;;;;;;;16.18;75.52;99899.84;1725747;81;21055;-72
2022/05/26 10:45:49;;;;;;;4.53;2.60;;;;;;;16.35;75.34;99906.48;1727812;81;21054;-73
2022/05/26 10:49:01;;;;;;;2.75;2.30;;;;;;;16.60;74.86;99902.25;1731390;81;21941;-74
2022/05/26 10:52:06;;;;;;;2.95;2.30;;;;;;;16.89;74.23;99890.17;1748075;81;20984;-74
2022/05/26 10:55:09;;;;;;;4.05;2.37;;;;;;;17.12;72.46;99900.38;1722034;81;21075;-73
2022/05/26 10:57:42;;;;;;;2.02;1.82;;;;;;;17.28;71.52;99895.95;1721573;81;21043;-72
2022/05/26 11:00:17;;;;;;;2.45;1.82;;;;;;;17.52;71.85;99884.27;1743705;80;21095;-72
2022/05/26 11:02:57;;;;;;;4.22;1.75;;;;;;;17.85;70.60;99883.51;1725138;82;21078;-73
2022/05/26 11:05:34;;;;;;;1.77;1.40;;;;;;;18.18;69.98;99880.03;1765820;80;21043;-74
2022/05/26 11:08:41;;;;;;;2.65;1.70;;;;;;;18.51;69.22;99879.98;1719175;82;21055;-76
2022/05/26 11:11:20;;;;;;;1.80;1.50;;;;;;;18.82;68.58;99874.47;1712243;82;21058;-74
2022/05/26 11:14:05;;;;;;;1.85;1.47;;;;;;;19.00;66.32;99890.09;1673316;82;21550;-73
2022/05/26 11:19:42;;;;;;;2.08;1.20;;;;;;;18.93;63.78;99899.92;1727218;81;21102;-74
2022/05/26 11:22:11;;;;;;;1.95;1.20;;;;;;;19.09;61.76;99900.19;1750670;81;21030;-74
2022/05/26 11:24:39;;;;;;;2.10;0.95;;;;;;;19.19;60.53;99895.36;1765093;79;21015;-74
2022/05/26 11:27:12;;;;;;;2.80;1.25;;;;;;;19.22;60.39;99896.86;1735672;81;21057;-72
2022/05/26 11:29:56;;;;;;;1.12;1.00;;;;;;;19.30;59.52;99912.78;1733387;81;22018;-73
2022/05/26 11:38:23;;;;;;;1.00;0.90;;;;;;;20.12;55.69;99894.92;1735240;81;21034;-71
2022/05/26 11:41:08;;;;;;;2.27;1.00;;;;;;;20.48;55.33;99883.53;1733149;81;21537;-77
2022/05/26 11:43:49;;;;;;;1.72;1.07;;;;;;;20.61;54.91;99888.65;1730189;81;22581;-75
2022/05/26 11:46:46;;;;;;;2.52;1.00;;;;;;;20.78;55.25;99892.14;1725825;81;21578;-77
2022/05/26 11:49:47;;;;;;;2.33;1.00;;;;;;;20.98;53.29;99886.86;1659969;81;21081;-76
2022/05/26 11:52:38;;;;;;;2.95;0.90;;;;;;;21.14;49.68;99889.19;1707127;81;21613;-75
2022/05/26 11:55:16;;;;;;;1.05;0.80;;;;;;;21.29;50.53;99889.55;1705522;82;21483;-74
2022/05/26 11:57:50;;;;;;;3.12;0.60;;;;;;;21.51;47.24;99890.20;1708012;82;21094;-74
2022/05/26 12:00:43;;;;;;;2.37;0.90;;;;;;;21.65;48.50;99879.28;1731872;82;21524;-74
2022/05/26 12:03:26;;;;;;;3.30;1.00;;;;;;;21.81;48.87;99875.38;1729876;82;21333;-75
2022/05/26 12:06:13;;;;;;;0.90;0.78;;;;;;;22.13;47.54;99879.62;1733002;81;21031;-75
2022/05/26 12:09:00;;;;;;;0.65;0.60;;;;;;;22.50;47.42;99883.48;1732117;82;21508;-76
2022/05/26 12:12:04;;;;;;;1.85;0.60;;;;;;;22.73;44.61;99895.92;1726483;81;21915;-74
2022/05/26 12:14:56;;;;;;;5.55;0.93;;;;;;;22.60;44.59;99889.25;1731282;81;21473;-76
2022/05/26 12:17:40;;;;;;;2.75;0.80;;;;;;;22.46;44.76;99885.75;1725634;82;22197;-73
2022/05/26 12:20:15;;;;;;;2.50;0.90;;;;;;;22.37;45.20;99879.46;1760651;81;21019;-75
2022/05/26 12:22:57;;;;;;;3.00;0.80;;;;;;;22.34;44.63;99869.13;1753326;80;21043;-78
2022/05/26 12:25:41;;;;;;;2.60;1.15;;;;;;;22.28;45.14;99876.98;1734349;80;21855;-75
2022/05/26 12:28:27;;;;;;;3.60;0.85;;;;;;;22.34;44.89;99879.89;1740909;80;21024;-74
2022/05/26 12:31:00;;;;;;;2.98;0.82;;;;;;;22.56;45.24;99873.20;1752695;80;21659;-74
2022/05/26 12:33:36;;;;;;;1.22;0.88;;;;;;;22.90;43.80;99878.81;1760830;80;21078;-76
2022/05/26 12:36:43;;;;;;;3.00;0.80;;;;;;;23.08;43.71;99872.20;1730549;82;21030;-76
2022/05/26 12:39:43;;;;;;;1.40;0.80;;;;;;;23.16;42.15;99864.36;1758228;80;21977;-77
2022/05/26 12:42:35;;;;;;;2.33;0.80;;;;;;;23.25;43.63;99871.67;1766013;80;21004;-77
2022/05/26 12:45:29;;;;;;;1.27;0.60;;;;;;;23.41;41.30;99869.30;1744052;81;21071;-77
2022/05/26 12:48:49;;;;;;;3.85;0.72;;;;;;;23.57;40.91;99861.73;1733458;80;21039;-78
2022/05/26 12:51:16;;;;;;;1.40;0.70;;;;;;;23.61;40.01;99872.41;1764758;80;21506;-73